createdAt,value
2023-05-18T00:00:27.800Z,0.00
2023-05-18T00:01:27.763Z,0.00
2023-05-18T00:02:27.859Z,0.00
2023-05-18T00:03:27.920Z,0.00
2023-05-18T00:04:27.745Z,0.00
2023-05-18T00:05:27.972Z,0.00
2023-05-18T00:06:27.690Z,0.00
2023-05-18T00:07:27.677Z,0.00
2023-05-18T00:08:30.661Z,0.00
2023-05-18T00:09:30.659Z,0.00
2023-05-18T00:10:27.691Z,0.00
2023-05-18T00:11:27.662Z,0.00
2023-05-18T00:12:27.614Z,0.00
2023-05-18T00:13:27.598Z,0.00
2023-05-18T00:14:27.582Z,0.00
2023-05-18T00:15:27.772Z,0.00
2023-05-18T00:16:27.627Z,0.00
2023-05-18T00:17:27.597Z,0.00
2023-05-18T00:18:27.527Z,0.00
2023-05-18T00:19:27.505Z,0.00
2023-05-18T00:20:27.501Z,0.00
2023-05-18T00:21:27.480Z,0.00
2023-05-18T00:22:27.479Z,0.00
2023-05-18T00:23:27.484Z,0.00
2023-05-18T00:24:27.440Z,0.00
2023-05-18T00:25:27.481Z,0.00
2023-05-18T00:26:27.414Z,0.00
2023-05-18T00:27:27.420Z,0.00
2023-05-18T00:28:30.413Z,0.00
2023-05-18T00:29:30.380Z,0.00
2023-05-18T00:30:27.388Z,0.00
2023-05-18T00:31:27.385Z,0.00
2023-05-18T00:32:27.428Z,0.00
2023-05-18T00:33:27.316Z,0.00
2023-05-18T00:34:27.319Z,0.00
2023-05-18T00:35:27.387Z,0.00
2023-05-18T00:36:27.315Z,0.00
2023-05-18T00:37:27.279Z,0.00
2023-05-18T00:38:27.260Z,0.00
2023-05-18T00:39:27.243Z,0.00
2023-05-18T00:40:27.227Z,0.00
2023-05-18T00:41:27.242Z,0.00
2023-05-18T00:42:27.214Z,0.00
2023-05-18T00:43:27.179Z,0.00
2023-05-18T00:44:27.171Z,0.00
2023-05-18T00:45:27.228Z,0.00
2023-05-18T00:46:27.303Z,0.00
2023-05-18T00:47:27.135Z,0.00
2023-05-18T00:48:30.153Z,0.00
2023-05-18T00:49:30.121Z,0.00
2023-05-18T00:50:27.112Z,0.00
2023-05-18T00:51:27.125Z,0.00
2023-05-18T00:52:27.069Z,0.00
2023-05-18T00:53:27.043Z,0.00
2023-05-18T00:54:27.030Z,0.00
2023-05-18T00:55:27.031Z,0.00
2023-05-18T00:56:27.034Z,0.00
2023-05-18T00:57:26.995Z,0.00
2023-05-18T00:58:27.021Z,0.00
2023-05-18T00:59:26.962Z,0.00
2023-05-18T01:00:26.958Z,0.00
2023-05-18T01:01:26.969Z,0.00
2023-05-18T01:02:27.031Z,0.00
2023-05-18T01:03:26.995Z,0.00
2023-05-18T01:04:26.961Z,0.00
2023-05-18T01:05:26.895Z,0.00
2023-05-18T01:06:26.876Z,0.00
2023-05-18T01:07:26.868Z,0.00
2023-05-18T01:08:29.843Z,0.00
2023-05-18T01:09:29.858Z,0.00
2023-05-18T01:10:26.828Z,0.00
2023-05-18T01:11:26.913Z,0.00
2023-05-18T01:12:26.784Z,0.00
2023-05-18T01:13:26.770Z,0.00
2023-05-18T01:14:28.653Z,0.00
2023-05-18T01:15:26.781Z,0.00
2023-05-18T01:16:26.758Z,0.00
2023-05-18T01:17:26.765Z,0.00
2023-05-18T01:18:26.703Z,0.00
2023-05-18T01:19:26.695Z,0.00
2023-05-18T01:20:26.727Z,0.00
2023-05-18T01:21:26.660Z,0.00
2023-05-18T01:22:26.650Z,0.00
2023-05-18T01:23:26.634Z,0.00
2023-05-18T01:24:26.645Z,0.00
2023-05-18T01:25:26.640Z,0.00
2023-05-18T01:26:26.618Z,0.00
2023-05-18T01:27:26.583Z,0.00
2023-05-18T01:28:29.624Z,0.00
2023-05-18T01:29:29.559Z,0.00
2023-05-18T01:30:26.542Z,0.00
2023-05-18T01:31:26.628Z,0.00
2023-05-18T01:32:26.544Z,0.00
2023-05-18T01:33:26.499Z,0.00
2023-05-18T01:34:26.480Z,0.00
2023-05-18T01:35:26.471Z,0.00
2023-05-18T01:36:26.487Z,0.00
2023-05-18T01:37:26.464Z,0.00
2023-05-18T01:38:26.422Z,0.00
2023-05-18T01:39:26.411Z,0.00
2023-05-18T01:40:26.406Z,0.00
2023-05-18T01:41:26.386Z,0.00
2023-05-18T01:42:26.401Z,0.00
2023-05-18T01:43:26.363Z,0.00
2023-05-18T01:44:26.355Z,0.00
2023-05-18T01:45:26.340Z,0.00
2023-05-18T01:46:26.359Z,0.00
2023-05-18T01:47:26.378Z,0.00
2023-05-18T01:48:29.299Z,0.00
2023-05-18T01:49:29.285Z,0.00
2023-05-18T01:50:26.265Z,0.00
2023-05-18T01:51:26.248Z,0.00
2023-05-18T01:52:26.269Z,0.00
2023-05-18T01:53:26.247Z,0.00
2023-05-18T01:54:26.215Z,0.00
2023-05-18T01:55:26.194Z,0.00
2023-05-18T01:56:26.189Z,0.00
2023-05-18T01:57:26.180Z,0.00
2023-05-18T01:58:26.181Z,0.00
2023-05-18T01:59:26.162Z,0.00
2023-05-18T02:00:26.129Z,0.00
2023-05-18T02:01:26.149Z,0.00
2023-05-18T02:02:26.206Z,0.00
2023-05-18T02:03:26.209Z,0.00
2023-05-18T02:04:26.074Z,0.00
2023-05-18T02:05:26.061Z,0.00
2023-05-18T02:06:26.058Z,0.00
2023-05-18T02:07:26.036Z,0.00
2023-05-18T02:08:29.082Z,0.00
2023-05-18T02:09:29.035Z,0.00
2023-05-18T02:10:25.994Z,0.00
2023-05-18T02:11:25.977Z,0.00
2023-05-18T02:12:25.968Z,0.00
2023-05-18T02:13:25.956Z,0.00
2023-05-18T02:14:25.984Z,0.00
2023-05-18T02:15:25.913Z,0.00
2023-05-18T02:16:25.983Z,0.00
2023-05-18T02:17:25.943Z,0.00
2023-05-18T02:18:25.879Z,0.00
2023-05-18T02:19:25.952Z,0.00
2023-05-18T02:20:27.411Z,0.00
2023-05-18T02:21:25.844Z,0.00
2023-05-18T02:22:25.830Z,0.00
2023-05-18T02:23:25.807Z,0.00
2023-05-18T02:24:25.805Z,0.00
2023-05-18T02:25:25.805Z,0.00
2023-05-18T02:26:25.842Z,0.00
2023-05-18T02:27:25.754Z,0.00
2023-05-18T02:28:28.735Z,0.00
2023-05-18T02:29:28.728Z,0.00
2023-05-18T02:30:25.723Z,0.00
2023-05-18T02:31:25.792Z,0.00
2023-05-18T02:32:25.769Z,0.00
2023-05-18T02:33:25.669Z,0.00
2023-05-18T02:34:25.659Z,0.00
2023-05-18T02:35:25.644Z,0.00
2023-05-18T02:36:25.635Z,0.00
2023-05-18T02:37:25.641Z,0.00
2023-05-18T02:38:25.616Z,0.00
2023-05-18T02:39:25.589Z,0.00
2023-05-18T02:40:25.592Z,0.00
2023-05-18T02:41:25.557Z,0.00
2023-05-18T02:42:25.603Z,0.00
2023-05-18T02:43:25.538Z,0.00
2023-05-18T02:44:25.522Z,4.00
2023-05-18T02:45:25.506Z,4.00
2023-05-18T02:46:25.556Z,0.00
2023-05-18T02:47:25.504Z,0.00
2023-05-18T02:48:28.552Z,4.00
2023-05-18T02:49:28.455Z,4.00
2023-05-18T02:50:25.447Z,0.00
2023-05-18T02:51:25.433Z,4.00
2023-05-18T02:52:25.409Z,4.00
2023-05-18T02:53:25.412Z,4.00
2023-05-18T02:54:25.419Z,4.00
2023-05-18T02:55:25.387Z,4.00
2023-05-18T02:56:25.374Z,8.00
2023-05-18T02:57:25.363Z,4.00
2023-05-18T02:58:25.380Z,8.00
2023-05-18T02:59:25.323Z,8.00
2023-05-18T03:00:25.310Z,8.00
2023-05-18T03:01:25.337Z,8.00
2023-05-18T03:02:25.336Z,8.00
2023-05-18T03:03:25.330Z,12.00
2023-05-18T03:04:25.288Z,12.00
2023-05-18T03:05:25.243Z,16.00
2023-05-18T03:06:25.257Z,12.00
2023-05-18T03:07:25.221Z,16.00
2023-05-18T03:08:28.209Z,16.00
2023-05-18T03:09:28.191Z,24.00
2023-05-18T03:10:25.173Z,24.00
2023-05-18T03:11:25.190Z,24.00
2023-05-18T03:12:25.159Z,28.00
2023-05-18T03:13:25.133Z,32.00
2023-05-18T03:14:25.124Z,32.00
2023-05-18T03:15:25.110Z,36.00
2023-05-18T03:16:25.190Z,40.00
2023-05-18T03:17:25.143Z,44.00
2023-05-18T03:18:25.080Z,44.00
2023-05-18T03:19:25.102Z,52.00
2023-05-18T03:20:25.047Z,52.00
2023-05-18T03:21:25.092Z,60.00
2023-05-18T03:22:25.019Z,64.00
2023-05-18T03:23:24.990Z,68.00
2023-05-18T03:24:24.988Z,72.00
2023-05-18T03:25:24.964Z,76.00
2023-05-18T03:26:24.959Z,80.00
2023-05-18T03:27:24.967Z,84.00
2023-05-18T03:28:27.934Z,92.00
2023-05-18T03:29:29.975Z,96.00
2023-05-18T03:30:24.909Z,104.00
2023-05-18T03:31:24.949Z,108.00
2023-05-18T03:32:24.928Z,120.00
2023-05-18T03:33:24.869Z,124.00
2023-05-18T03:34:24.849Z,136.00
2023-05-18T03:35:24.833Z,144.00
2023-05-18T03:36:24.815Z,152.00
2023-05-18T03:37:25.773Z,156.00
2023-05-18T03:38:24.818Z,164.00
2023-05-18T03:39:24.777Z,172.00
2023-05-18T03:40:24.782Z,180.00
2023-05-18T03:41:24.750Z,188.00
2023-05-18T03:42:24.770Z,196.00
2023-05-18T03:43:24.754Z,200.00
2023-05-18T03:44:24.718Z,204.00
2023-05-18T03:45:24.696Z,208.00
2023-05-18T03:46:24.743Z,216.00
2023-05-18T03:47:24.677Z,224.00
2023-05-18T03:48:27.728Z,240.00
2023-05-18T03:49:27.648Z,248.00
2023-05-18T03:50:24.638Z,260.00
2023-05-18T03:51:24.616Z,272.00
2023-05-18T03:52:24.616Z,284.00
2023-05-18T03:53:24.590Z,296.00
2023-05-18T03:54:24.615Z,300.00
2023-05-18T03:55:24.557Z,308.00
2023-05-18T03:56:24.547Z,316.00
2023-05-18T03:57:24.533Z,328.00
2023-05-18T03:58:24.523Z,344.00
2023-05-18T03:59:24.533Z,356.00
2023-05-18T04:00:24.507Z,364.00
2023-05-18T04:01:24.477Z,380.00
2023-05-18T04:02:24.603Z,388.00
2023-05-18T04:03:24.551Z,400.00
2023-05-18T04:04:24.518Z,420.00
2023-05-18T04:05:24.432Z,436.00
2023-05-18T04:06:24.449Z,460.00
2023-05-18T04:07:24.461Z,476.00
2023-05-18T04:08:27.396Z,492.00
2023-05-18T04:09:27.410Z,504.00
2023-05-18T04:10:24.366Z,528.00
2023-05-18T04:11:24.349Z,548.00
2023-05-18T04:12:24.374Z,560.00
2023-05-18T04:13:24.312Z,564.00
2023-05-18T04:14:24.306Z,568.00
2023-05-18T04:15:24.283Z,572.00
2023-05-18T04:16:24.317Z,576.00
2023-05-18T04:17:24.257Z,588.00
2023-05-18T04:18:24.277Z,604.00
2023-05-18T04:19:24.851Z,624.00
2023-05-18T04:20:24.227Z,636.00
2023-05-18T04:21:24.254Z,660.00
2023-05-18T04:22:24.204Z,680.00
2023-05-18T04:23:24.194Z,696.00
2023-05-18T04:24:24.166Z,712.00
2023-05-18T04:25:24.152Z,724.00
2023-05-18T04:26:24.136Z,720.00
2023-05-18T04:27:24.159Z,720.00
2023-05-18T04:28:27.104Z,724.00
2023-05-18T04:29:27.099Z,732.00
2023-05-18T04:30:24.091Z,740.00
2023-05-18T04:31:24.151Z,752.00
2023-05-18T04:32:24.090Z,764.00
2023-05-18T04:33:24.057Z,764.00
2023-05-18T04:34:24.025Z,772.00
2023-05-18T04:35:24.016Z,780.00
2023-05-18T04:36:23.998Z,780.00
2023-05-18T04:37:24.042Z,792.00
2023-05-18T04:38:23.975Z,804.00
2023-05-18T04:39:23.958Z,812.00
2023-05-18T04:40:23.949Z,824.00
2023-05-18T04:41:23.933Z,840.00
2023-05-18T04:42:23.927Z,856.00
2023-05-18T04:43:23.955Z,876.00
2023-05-18T04:44:23.887Z,888.00
2023-05-18T04:45:23.880Z,892.00
2023-05-18T04:46:23.904Z,896.00
2023-05-18T04:47:23.900Z,904.00
2023-05-18T04:48:26.875Z,928.00
2023-05-18T04:49:26.847Z,956.00
2023-05-18T04:50:24.070Z,984.00
2023-05-18T04:51:23.800Z,1000.00
2023-05-18T04:52:23.782Z,1016.00
2023-05-18T04:53:23.774Z,1024.00
2023-05-18T04:54:23.806Z,1032.00
2023-05-18T04:55:23.747Z,1036.00
2023-05-18T04:56:23.724Z,1048.00
2023-05-18T04:57:23.715Z,1068.00
2023-05-18T04:58:23.709Z,1092.00
2023-05-18T04:59:23.701Z,1124.00
2023-05-18T05:00:23.706Z,1160.00
2023-05-18T05:01:23.732Z,1196.00
2023-05-18T05:02:23.710Z,1236.00
2023-05-18T05:03:23.687Z,1268.00
2023-05-18T05:04:23.642Z,1292.00
2023-05-18T05:05:23.606Z,1292.00
2023-05-18T05:06:23.586Z,1300.00
2023-05-18T05:07:23.574Z,1316.00
2023-05-18T05:08:26.567Z,1344.00
2023-05-18T05:09:26.586Z,1372.00
2023-05-18T05:10:23.532Z,1396.00
2023-05-18T05:11:23.512Z,1428.00
2023-05-18T05:12:23.500Z,1452.00
2023-05-18T05:13:23.499Z,1472.00
2023-05-18T05:14:23.502Z,1500.00
2023-05-18T05:15:23.472Z,1520.00
2023-05-18T05:16:23.472Z,1536.00
2023-05-18T05:17:23.436Z,1560.00
2023-05-18T05:18:23.416Z,1588.00
2023-05-18T05:19:23.532Z,1624.00
2023-05-18T05:20:23.399Z,1656.00
2023-05-18T05:21:23.387Z,1688.00
2023-05-18T05:22:23.367Z,1708.00
2023-05-18T05:23:23.354Z,1720.00
2023-05-18T05:24:23.331Z,1736.00
2023-05-18T05:25:23.365Z,1736.00
2023-05-18T05:26:23.306Z,1728.00
2023-05-18T05:27:23.299Z,1708.00
2023-05-18T05:28:26.287Z,1688.00
2023-05-18T05:29:26.277Z,1672.00
2023-05-18T05:30:23.246Z,1660.00
2023-05-18T05:31:23.322Z,1644.00
2023-05-18T05:32:23.255Z,1632.00
2023-05-18T05:33:23.245Z,1628.00
2023-05-18T05:34:23.194Z,1632.00
2023-05-18T05:35:23.247Z,1644.00
2023-05-18T05:36:23.165Z,1648.00
2023-05-18T05:37:23.165Z,1644.00
2023-05-18T05:38:23.151Z,1640.00
2023-05-18T05:39:23.130Z,1636.00
2023-05-18T05:40:23.124Z,1644.00
2023-05-18T05:41:23.172Z,1660.00
2023-05-18T05:42:23.096Z,1688.00
2023-05-18T05:43:23.102Z,1724.00
2023-05-18T05:44:23.055Z,1756.00
2023-05-18T05:45:23.044Z,1796.00
2023-05-18T05:46:23.096Z,1844.00
2023-05-18T05:47:23.046Z,1892.00
2023-05-18T05:48:26.010Z,1936.00
2023-05-18T05:49:25.997Z,1964.00
2023-05-18T05:50:22.992Z,1992.00
2023-05-18T05:51:23.000Z,2024.00
2023-05-18T05:52:22.961Z,2064.00
2023-05-18T05:53:22.937Z,2104.00
2023-05-18T05:54:22.923Z,2124.00
2023-05-18T05:55:22.925Z,2144.00
2023-05-18T05:56:22.896Z,2156.00
2023-05-18T05:57:22.912Z,2192.00
2023-05-18T05:58:22.879Z,2236.00
2023-05-18T05:59:22.855Z,2284.00
2023-05-18T06:00:22.852Z,2320.00
2023-05-18T06:01:22.830Z,2340.00
2023-05-18T06:02:22.949Z,2344.00
2023-05-18T06:03:23.090Z,2320.00
2023-05-18T06:04:22.811Z,2284.00
2023-05-18T06:05:22.771Z,2264.00
2023-05-18T06:06:22.756Z,2252.00
2023-05-18T06:07:22.748Z,2252.00
2023-05-18T06:08:25.758Z,2260.00
2023-05-18T06:09:25.778Z,2276.00
2023-05-18T06:10:22.699Z,2300.00
2023-05-18T06:11:22.695Z,2336.00
2023-05-18T06:12:22.679Z,2352.00
2023-05-18T06:13:22.678Z,2360.00
2023-05-18T06:14:22.642Z,2364.00
2023-05-18T06:15:22.654Z,2368.00
2023-05-18T06:16:22.694Z,2384.00
2023-05-18T06:17:22.605Z,2400.00
2023-05-18T06:18:22.589Z,2432.00
2023-05-18T06:19:22.757Z,2460.00
2023-05-18T06:20:22.594Z,2480.00
2023-05-18T06:21:22.563Z,2484.00
2023-05-18T06:22:22.547Z,2488.00
2023-05-18T06:23:22.544Z,2504.00
2023-05-18T06:24:22.543Z,2536.00
2023-05-18T06:25:22.497Z,2568.00
2023-05-18T06:26:22.470Z,2580.00
2023-05-18T06:27:22.486Z,2572.00
2023-05-18T06:28:25.447Z,2572.00
2023-05-18T06:29:25.474Z,2580.00
2023-05-18T06:30:22.427Z,2604.00
2023-05-18T06:31:22.432Z,2644.00
2023-05-18T06:32:22.601Z,2684.00
2023-05-18T06:33:22.387Z,2724.00
2023-05-18T06:34:22.412Z,2768.00
2023-05-18T06:35:22.373Z,2816.00
2023-05-18T06:36:22.374Z,2852.00
2023-05-18T06:37:22.347Z,2872.00
2023-05-18T06:38:22.336Z,2864.00
2023-05-18T06:39:22.303Z,2848.00
2023-05-18T06:40:22.319Z,2840.00
2023-05-18T06:41:22.317Z,2848.00
2023-05-18T06:42:22.272Z,2876.00
2023-05-18T06:43:22.292Z,2904.00
2023-05-18T06:44:22.251Z,2932.00
2023-05-18T06:45:22.232Z,2960.00
2023-05-18T06:46:22.248Z,2996.00
2023-05-18T06:47:22.223Z,3044.00
2023-05-18T06:48:25.235Z,3092.00
2023-05-18T06:49:25.181Z,3152.00
2023-05-18T06:50:22.167Z,3216.00
2023-05-18T06:51:22.145Z,3284.00
2023-05-18T06:52:22.158Z,3352.00
2023-05-18T06:53:22.119Z,3416.00
2023-05-18T06:54:22.143Z,3480.00
2023-05-18T06:55:22.102Z,3536.00
2023-05-18T06:56:22.107Z,3604.00
2023-05-18T06:57:22.076Z,3660.00
2023-05-18T06:58:22.057Z,3700.00
2023-05-18T06:59:22.042Z,3740.00
2023-05-18T07:00:22.020Z,3760.00
2023-05-18T07:01:22.121Z,3784.00
2023-05-18T07:02:22.005Z,3800.00
2023-05-18T07:03:22.020Z,3772.00
2023-05-18T07:04:22.005Z,3780.00
2023-05-18T07:05:21.963Z,3816.00
2023-05-18T07:06:21.947Z,3864.00
2023-05-18T07:07:21.965Z,3932.00
2023-05-18T07:08:24.921Z,3964.00
2023-05-18T07:09:24.911Z,3964.00
2023-05-18T07:10:21.881Z,3956.00
2023-05-18T07:11:21.913Z,3940.00
2023-05-18T07:12:21.862Z,3920.00
2023-05-18T07:13:21.855Z,3864.00
2023-05-18T07:14:21.831Z,3820.00
2023-05-18T07:15:21.824Z,3796.00
2023-05-18T07:16:21.908Z,3796.00
2023-05-18T07:17:21.795Z,3828.00
2023-05-18T07:18:21.783Z,3872.00
2023-05-18T07:19:21.914Z,3920.00
2023-05-18T07:20:22.669Z,3976.00
2023-05-18T07:21:21.744Z,4008.00
2023-05-18T07:22:21.775Z,4016.00
2023-05-18T07:23:21.715Z,3988.00
2023-05-18T07:24:21.700Z,3968.00
2023-05-18T07:25:21.704Z,3960.00
2023-05-18T07:26:21.676Z,3964.00
2023-05-18T07:27:21.665Z,3964.00
2023-05-18T07:28:24.677Z,4008.00
2023-05-18T07:29:24.675Z,4064.00
2023-05-18T07:30:21.624Z,4132.00
2023-05-18T07:31:21.872Z,4204.00
2023-05-18T07:32:21.628Z,4276.00
2023-05-18T07:33:21.655Z,4348.00
2023-05-18T07:34:21.569Z,4424.00
2023-05-18T07:35:21.559Z,4504.00
2023-05-18T07:36:21.527Z,4588.00
2023-05-18T07:37:21.525Z,4644.00
2023-05-18T07:38:21.511Z,4700.00
2023-05-18T07:39:21.530Z,4744.00
2023-05-18T07:40:21.507Z,4812.00
2023-05-18T07:41:21.464Z,4888.00
2023-05-18T07:42:21.473Z,4992.00
2023-05-18T07:43:21.448Z,5112.00
2023-05-18T07:44:21.420Z,5244.00
2023-05-18T07:45:21.448Z,5348.00
2023-05-18T07:46:21.431Z,5440.00
2023-05-18T07:47:21.386Z,5512.00
2023-05-18T07:48:24.363Z,5588.00
2023-05-18T07:49:24.402Z,5684.00
2023-05-18T07:50:21.357Z,5776.00
2023-05-18T07:51:21.330Z,5840.00
2023-05-18T07:52:21.307Z,5876.00
2023-05-18T07:53:21.299Z,5880.00
2023-05-18T07:54:21.291Z,5872.00
2023-05-18T07:55:21.288Z,5880.00
2023-05-18T07:56:21.244Z,5916.00
2023-05-18T07:57:21.252Z,5952.00
2023-05-18T07:58:21.221Z,5968.00
2023-05-18T07:59:21.206Z,5996.00
2023-05-18T08:00:21.251Z,6016.00
2023-05-18T08:01:21.176Z,6024.00
2023-05-18T08:02:21.212Z,6036.00
2023-05-18T08:03:21.228Z,6084.00
2023-05-18T08:04:21.173Z,6164.00
2023-05-18T08:05:21.119Z,6256.00
2023-05-18T08:06:21.161Z,6328.00
2023-05-18T08:07:21.111Z,6352.00
2023-05-18T08:08:24.127Z,6324.00
2023-05-18T08:09:24.079Z,6304.00
2023-05-18T08:10:21.057Z,6344.00
2023-05-18T08:11:21.039Z,6448.00
2023-05-18T08:12:21.024Z,6608.00
2023-05-18T08:13:21.086Z,6764.00
2023-05-18T08:14:21.056Z,6880.00
2023-05-18T08:15:21.029Z,6916.00
2023-05-18T08:16:21.030Z,6872.00
2023-05-18T08:17:20.961Z,6804.00
2023-05-18T08:18:20.944Z,6720.00
2023-05-18T08:19:21.071Z,6704.00
2023-05-18T08:20:20.927Z,6948.00
2023-05-18T08:21:20.933Z,6848.00
2023-05-18T08:22:20.920Z,6656.00
2023-05-18T08:23:20.923Z,6652.00
2023-05-18T08:24:20.857Z,6656.00
2023-05-18T08:25:20.857Z,6676.00
2023-05-18T08:26:20.822Z,6716.00
2023-05-18T08:27:20.812Z,6796.00
2023-05-18T08:28:23.849Z,6856.00
2023-05-18T08:29:23.791Z,6908.00
2023-05-18T08:30:20.775Z,6960.00
2023-05-18T08:31:20.791Z,6972.00
2023-05-18T08:32:20.810Z,6988.00
2023-05-18T08:33:20.752Z,7028.00
2023-05-18T08:34:20.763Z,7060.00
2023-05-18T08:35:20.707Z,7080.00
2023-05-18T08:36:20.692Z,7116.00
2023-05-18T08:37:20.680Z,7164.00
2023-05-18T08:38:20.674Z,7192.00
2023-05-18T08:39:20.647Z,7244.00
2023-05-18T08:40:20.683Z,7304.00
2023-05-18T08:41:20.626Z,7360.00
2023-05-18T08:42:20.603Z,7388.00
2023-05-18T08:43:20.600Z,7328.00
2023-05-18T08:44:20.586Z,7276.00
2023-05-18T08:45:20.569Z,7252.00
2023-05-18T08:46:20.575Z,7244.00
2023-05-18T08:47:20.568Z,7236.00
2023-05-18T08:48:26.355Z,7276.00
2023-05-18T08:49:23.521Z,7300.00
2023-05-18T08:50:22.092Z,7276.00
2023-05-18T08:51:20.487Z,7204.00
2023-05-18T08:52:20.469Z,7152.00
2023-05-18T08:53:20.469Z,7124.00
2023-05-18T08:54:20.487Z,7100.00
2023-05-18T08:55:20.428Z,7128.00
2023-05-18T08:56:20.415Z,7160.00
2023-05-18T08:57:20.396Z,7120.00
2023-05-18T08:58:20.390Z,7108.00
2023-05-18T08:59:20.368Z,7112.00
2023-05-18T09:00:21.672Z,7096.00
2023-05-18T09:01:20.370Z,7068.00
2023-05-18T09:02:20.389Z,7044.00
2023-05-18T09:03:20.343Z,7012.00
2023-05-18T09:04:20.341Z,7016.00
2023-05-18T09:05:20.363Z,7052.00
2023-05-18T09:06:21.057Z,7140.00
2023-05-18T09:07:20.272Z,7264.00
2023-05-18T09:08:23.249Z,7336.00
2023-05-18T09:09:23.254Z,7144.00
2023-05-18T09:10:20.232Z,6992.00
2023-05-18T09:11:20.199Z,6900.00
2023-05-18T09:12:21.276Z,6828.00
2023-05-18T09:13:20.183Z,6724.00
2023-05-18T09:14:20.214Z,6652.00
2023-05-18T09:15:20.149Z,6604.00
2023-05-18T09:16:20.154Z,6608.00
2023-05-18T09:17:20.132Z,6592.00
2023-05-18T09:18:22.820Z,6544.00
2023-05-18T09:19:20.232Z,6528.00
2023-05-18T09:20:20.131Z,6500.00
2023-05-18T09:21:20.058Z,6456.00
2023-05-18T09:22:20.065Z,6436.00
2023-05-18T09:23:20.050Z,6480.00
2023-05-18T09:24:21.359Z,6520.00
2023-05-18T09:25:20.006Z,6524.00
2023-05-18T09:26:20.051Z,6508.00
2023-05-18T09:27:19.995Z,6536.00
2023-05-18T09:28:22.975Z,6580.00
2023-05-18T09:29:22.979Z,6528.00
2023-05-18T09:30:19.966Z,6456.00
2023-05-18T09:31:19.936Z,6420.00
2023-05-18T09:32:19.974Z,6356.00
2023-05-18T09:33:19.946Z,6308.00
2023-05-18T09:34:19.884Z,6216.00
2023-05-18T09:35:19.875Z,6224.00
2023-05-18T09:36:19.862Z,6204.00
2023-05-18T09:37:19.849Z,6152.00
2023-05-18T09:38:19.871Z,6244.00
2023-05-18T09:39:19.820Z,6368.00
2023-05-18T09:40:19.814Z,6392.00
2023-05-18T09:41:19.817Z,6368.00
2023-05-18T09:42:20.167Z,6360.00
2023-05-18T09:43:19.793Z,6224.00
2023-05-18T09:44:19.811Z,6172.00
2023-05-18T09:45:19.744Z,6132.00
2023-05-18T09:46:19.742Z,6072.00
2023-05-18T09:47:19.701Z,5992.00
2023-05-18T09:48:24.814Z,6336.00
2023-05-18T09:49:22.737Z,6560.00
2023-05-18T09:50:19.702Z,6892.00
2023-05-18T09:51:19.646Z,5704.00
2023-05-18T09:52:19.636Z,5372.00
2023-05-18T09:53:19.628Z,5376.00
2023-05-18T09:54:19.633Z,5972.00
2023-05-18T09:55:19.677Z,5496.00
2023-05-18T09:56:19.591Z,6688.00
2023-05-18T09:57:19.564Z,6432.00
2023-05-18T09:58:19.551Z,6520.00
2023-05-18T09:59:19.547Z,6316.00
2023-05-18T10:00:19.790Z,6276.00
2023-05-18T10:01:19.597Z,6192.00
2023-05-18T10:02:19.536Z,6000.00
2023-05-18T10:03:19.480Z,5952.00
2023-05-18T10:04:19.516Z,5852.00
2023-05-18T10:05:19.486Z,5680.00
2023-05-18T10:06:19.451Z,5576.00
2023-05-18T10:07:19.488Z,5500.00
2023-05-18T10:08:22.428Z,5444.00
2023-05-18T10:09:22.399Z,5384.00
2023-05-18T10:10:19.416Z,5348.00
2023-05-18T10:11:19.380Z,5320.00
2023-05-18T10:12:19.358Z,5328.00
2023-05-18T10:13:19.392Z,5340.00
2023-05-18T10:14:20.112Z,5296.00
2023-05-18T10:15:19.332Z,5240.00
2023-05-18T10:16:19.343Z,5240.00
2023-05-18T10:17:19.329Z,5244.00
2023-05-18T10:18:19.325Z,5204.00
2023-05-18T10:19:19.325Z,5160.00
2023-05-18T10:20:19.430Z,5120.00
2023-05-18T10:21:19.245Z,5108.00
2023-05-18T10:22:19.444Z,5100.00
2023-05-18T10:23:19.361Z,5096.00
2023-05-18T10:24:19.196Z,5112.00
2023-05-18T10:25:19.188Z,5104.00
2023-05-18T10:26:19.202Z,5120.00
2023-05-18T10:27:19.151Z,5148.00
2023-05-18T10:28:22.198Z,5188.00
2023-05-18T10:29:22.180Z,5240.00
2023-05-18T10:30:19.221Z,5240.00
2023-05-18T10:31:19.144Z,5288.00
2023-05-18T10:32:19.094Z,5324.00
2023-05-18T10:33:28.355Z,5380.00
2023-05-18T10:34:20.117Z,5444.00
2023-05-18T10:35:19.050Z,5528.00
2023-05-18T10:36:19.037Z,5604.00
2023-05-18T10:37:19.024Z,5696.00
2023-05-18T10:38:19.015Z,5792.00
2023-05-18T10:39:18.997Z,5892.00
2023-05-18T10:40:19.073Z,5960.00
2023-05-18T10:41:18.977Z,6020.00
2023-05-18T10:42:18.962Z,6108.00
2023-05-18T10:43:19.886Z,6232.00
2023-05-18T10:44:18.920Z,6360.00
2023-05-18T10:45:18.914Z,6492.00
2023-05-18T10:46:19.058Z,6576.00
2023-05-18T10:47:18.986Z,6556.00
2023-05-18T10:48:21.888Z,6424.00
2023-05-18T10:49:21.869Z,6220.00
2023-05-18T10:50:18.863Z,6108.00
2023-05-18T10:51:19.326Z,6000.00
2023-05-18T10:52:18.832Z,5964.00
2023-05-18T10:53:18.800Z,5968.00
2023-05-18T10:54:18.802Z,6056.00
2023-05-18T10:55:18.817Z,6124.00
2023-05-18T10:56:18.793Z,6120.00
2023-05-18T10:57:18.764Z,6024.00
2023-05-18T10:58:18.755Z,5940.00
2023-05-18T10:59:18.750Z,5844.00
2023-05-18T11:00:18.710Z,5648.00
2023-05-18T11:01:18.769Z,5696.00
2023-05-18T11:02:18.691Z,5700.00
2023-05-18T11:03:18.728Z,5784.00
2023-05-18T11:04:18.681Z,5796.00
2023-05-18T11:05:18.823Z,5740.00
2023-05-18T11:06:18.735Z,5664.00
2023-05-18T11:07:18.639Z,5560.00
2023-05-18T11:08:21.632Z,4856.00
2023-05-18T11:09:21.590Z,5328.00
2023-05-18T11:10:18.582Z,4880.00
2023-05-18T11:11:19.665Z,5204.00
2023-05-18T11:12:18.559Z,5304.00
2023-05-18T11:13:18.560Z,5220.00
2023-05-18T11:14:18.529Z,5068.00
2023-05-18T11:15:18.512Z,5080.00
2023-05-18T11:16:18.619Z,5052.00
2023-05-18T11:17:18.508Z,4984.00
2023-05-18T11:18:18.547Z,4948.00
2023-05-18T11:19:18.531Z,4912.00
2023-05-18T11:20:18.477Z,4876.00
2023-05-18T11:21:18.413Z,4860.00
2023-05-18T11:22:18.412Z,4816.00
2023-05-18T11:23:18.456Z,4804.00
2023-05-18T11:24:18.389Z,4800.00
2023-05-18T11:25:18.405Z,4812.00
2023-05-18T11:26:18.352Z,4844.00
2023-05-18T11:27:18.344Z,4864.00
2023-05-18T11:28:21.327Z,4832.00
2023-05-18T11:29:21.317Z,4820.00
2023-05-18T11:30:18.297Z,4772.00
2023-05-18T11:31:18.319Z,4708.00
2023-05-18T11:32:22.673Z,4684.00
2023-05-18T11:33:19.339Z,4692.00
2023-05-18T11:34:18.245Z,4704.00
2023-05-18T11:35:18.234Z,4692.00
2023-05-18T11:36:18.287Z,4692.00
2023-05-18T11:37:18.208Z,4704.00
2023-05-18T11:38:18.198Z,4708.00
2023-05-18T11:39:18.179Z,4728.00
2023-05-18T11:40:18.171Z,4740.00
2023-05-18T11:41:18.156Z,4756.00
2023-05-18T11:42:18.192Z,4792.00
2023-05-18T11:43:18.124Z,4792.00
2023-05-18T11:44:18.111Z,4900.00
2023-05-18T11:45:18.090Z,4848.00
2023-05-18T11:46:18.093Z,4912.00
2023-05-18T11:47:18.113Z,4928.00
2023-05-18T11:48:21.202Z,5108.00
2023-05-18T11:49:21.051Z,4504.00
2023-05-18T11:50:18.034Z,4156.00
2023-05-18T11:51:18.020Z,3524.00
2023-05-18T11:52:18.013Z,3596.00
2023-05-18T11:53:18.036Z,3236.00
2023-05-18T11:54:17.983Z,3224.00
2023-05-18T11:55:17.967Z,3604.00
2023-05-18T11:56:17.961Z,4824.00
2023-05-18T11:57:18.581Z,4796.00
2023-05-18T11:58:17.925Z,4724.00
2023-05-18T11:59:17.915Z,4656.00
2023-05-18T12:00:17.916Z,4628.00
2023-05-18T12:01:17.919Z,4596.00
2023-05-18T12:02:18.026Z,4608.00
2023-05-18T12:03:17.974Z,4632.00
2023-05-18T12:04:17.983Z,4612.00
2023-05-18T12:05:17.854Z,4568.00
2023-05-18T12:06:17.828Z,4504.00
2023-05-18T12:07:17.804Z,4500.00
2023-05-18T12:08:20.832Z,4516.00
2023-05-18T12:09:20.790Z,4532.00
2023-05-18T12:10:17.806Z,4568.00
2023-05-18T12:11:17.749Z,4580.00
2023-05-18T12:12:17.741Z,4600.00
2023-05-18T12:13:17.742Z,4620.00
2023-05-18T12:14:17.769Z,4592.00
2023-05-18T12:15:17.702Z,4540.00
2023-05-18T12:16:17.723Z,4576.00
2023-05-18T12:17:17.678Z,4600.00
2023-05-18T12:18:17.697Z,4560.00
2023-05-18T12:19:17.722Z,4516.00
2023-05-18T12:20:17.676Z,4464.00
2023-05-18T12:21:17.631Z,4448.00
2023-05-18T12:22:17.649Z,4424.00
2023-05-18T12:23:17.604Z,4428.00
2023-05-18T12:24:17.581Z,4420.00
2023-05-18T12:25:17.573Z,4416.00
2023-05-18T12:26:17.563Z,4396.00